createdAt,value
2019-02-22T00:02:26.124Z,9.36
2019-02-22T00:05:01.527Z,9.39
2019-02-22T00:07:38.242Z,9.39
2019-02-22T00:10:12.278Z,9.36
2019-02-22T00:12:46.575Z,9.31
2019-02-22T00:15:23.244Z,9.37
2019-02-22T00:17:57.817Z,9.39
2019-02-22T00:20:31.598Z,9.36
2019-02-22T00:23:03.628Z,9.36
2019-02-22T00:25:35.664Z,9.37
2019-02-22T00:28:13.323Z,9.36
2019-02-22T00:30:45.160Z,9.31
2019-02-22T00:33:17.131Z,9.37
2019-02-22T00:35:57.354Z,9.32
2019-02-22T00:38:34.455Z,9.32
2019-02-22T00:41:12.840Z,9.33
2019-02-22T00:43:46.825Z,9.34
2019-02-22T00:46:25.207Z,9.33
2019-02-22T00:49:01.887Z,9.32
2019-02-22T00:51:37.947Z,9.36
2019-02-22T00:54:15.519Z,9.34
2019-02-22T00:56:50.768Z,9.31
2019-02-22T00:59:25.975Z,9.32
2019-02-22T01:01:59.822Z,9.34
2019-02-22T01:04:38.862Z,9.30
2019-02-22T01:07:21.086Z,9.29
2019-02-22T01:09:53.059Z,9.29
2019-02-22T01:12:24.931Z,9.23
2019-02-22T01:14:56.994Z,9.22
2019-02-22T01:17:31.335Z,9.26
2019-02-22T01:20:05.806Z,9.24
2019-02-22T01:22:37.726Z,9.25
2019-02-22T01:25:09.578Z,9.21
2019-02-22T01:27:43.552Z,9.26
2019-02-22T01:30:15.761Z,9.22
2019-02-22T01:32:48.232Z,9.16
2019-02-22T01:35:25.241Z,9.27
2019-02-22T01:38:14.848Z,9.28
2019-02-22T01:40:51.820Z,9.17
2019-02-22T01:43:26.400Z,9.19
2019-02-22T01:46:08.396Z,9.10
2019-02-22T01:48:45.275Z,9.16
2019-02-22T01:51:23.275Z,9.05
2019-02-22T01:54:00.561Z,9.14
2019-02-22T01:56:37.407Z,9.02
2019-02-22T01:59:13.759Z,9.06
2019-02-22T02:01:50.775Z,9.09
2019-02-22T02:04:22.822Z,8.99
2019-02-22T02:06:56.054Z,9.04
2019-02-22T02:09:29.201Z,9.00
2019-02-22T02:12:09.655Z,8.98
2019-02-22T02:14:50.363Z,8.87
2019-02-22T02:17:30.852Z,8.84
2019-02-22T02:20:09.339Z,8.87
2019-02-22T02:22:44.405Z,8.81
2019-02-22T02:25:20.141Z,8.83
2019-02-22T02:27:54.524Z,8.84
2019-02-22T02:30:26.747Z,8.73
2019-02-22T02:33:01.031Z,8.80
2019-02-22T02:35:33.003Z,8.72
2019-02-22T02:38:16.933Z,8.79
2019-02-22T02:41:08.064Z,8.81
2019-02-22T02:43:41.310Z,8.69
2019-02-22T02:46:15.044Z,8.73
2019-02-22T02:48:49.514Z,8.82
2019-02-22T02:51:23.162Z,8.68
2019-02-22T02:53:55.241Z,8.63
2019-02-22T02:56:28.799Z,8.64
2019-02-22T02:59:03.143Z,8.69
2019-02-22T03:01:39.595Z,8.64
2019-02-22T03:04:11.516Z,8.65
2019-02-22T03:06:54.643Z,8.74
2019-02-22T03:09:28.999Z,8.83
2019-02-22T03:12:00.845Z,8.78
2019-02-22T03:14:34.326Z,8.81
2019-02-22T03:17:10.539Z,8.73
2019-02-22T03:19:47.028Z,8.73
2019-02-22T03:22:19.882Z,8.65
2019-02-22T03:24:55.054Z,8.70
2019-02-22T03:27:33.058Z,8.74
2019-02-22T03:30:15.896Z,8.58
2019-02-22T03:32:45.273Z,8.60
2019-02-22T03:35:24.483Z,8.62
2019-02-22T03:38:07.771Z,8.63
2019-02-22T03:40:44.991Z,8.60
2019-02-22T03:43:23.000Z,8.47
2019-02-22T03:45:58.744Z,8.62
2019-02-22T03:48:33.814Z,8.67
2019-02-22T03:51:05.946Z,8.68
2019-02-22T03:53:53.011Z,8.51
2019-02-22T03:56:27.893Z,8.69
2019-02-22T03:59:00.167Z,8.50
2019-02-22T04:01:35.056Z,8.61
2019-02-22T04:04:11.674Z,8.52
2019-02-22T04:06:43.953Z,8.57
2019-02-22T04:09:26.353Z,8.53
2019-02-22T04:12:01.457Z,8.54
2019-02-22T04:14:34.679Z,8.40
2019-02-22T04:17:07.996Z,8.49
2019-02-22T04:19:43.253Z,8.40
2019-02-22T04:22:16.403Z,8.53
2019-02-22T04:24:52.249Z,8.55
2019-02-22T04:27:28.313Z,8.51
2019-02-22T04:30:02.167Z,8.47
2019-02-22T04:32:38.777Z,8.35
2019-02-22T04:35:20.485Z,8.41
2019-02-22T04:38:14.626Z,8.50
2019-02-22T04:40:54.409Z,8.38
2019-02-22T04:43:33.542Z,8.39
2019-02-22T04:46:08.039Z,8.52
2019-02-22T04:48:39.905Z,8.18
2019-02-22T04:51:11.728Z,8.39
2019-02-22T04:53:43.618Z,8.21
2019-02-22T04:56:15.532Z,8.25
2019-02-22T04:58:47.406Z,8.10
2019-02-22T05:01:20.818Z,7.96
2019-02-22T05:03:52.695Z,8.04
2019-02-22T05:06:24.534Z,8.05
2019-02-22T05:08:56.422Z,8.03
2019-02-22T05:11:28.390Z,7.95
2019-02-22T05:14:00.410Z,8.04
2019-02-22T05:16:32.280Z,8.06
2019-02-22T05:19:04.174Z,7.98
2019-02-22T05:21:36.001Z,7.82
2019-02-22T05:24:07.921Z,7.60
2019-02-22T05:26:39.805Z,7.46
2019-02-22T05:29:11.598Z,7.48
2019-02-22T05:31:43.626Z,7.33
2019-02-22T05:34:15.497Z,7.31
2019-02-22T05:36:47.370Z,7.29
2019-02-22T05:39:19.684Z,7.29
2019-02-22T05:41:51.702Z,7.25
2019-02-22T05:44:23.549Z,7.17
2019-02-22T05:47:00.417Z,7.30
2019-02-22T05:49:28.850Z,7.08
2019-02-22T05:52:00.690Z,7.03
2019-02-22T05:54:32.650Z,7.04
2019-02-22T05:57:04.447Z,6.88
2019-02-22T05:59:36.356Z,6.81
2019-02-22T06:02:09.302Z,6.79
2019-02-22T06:04:41.361Z,6.57
2019-02-22T06:07:14.564Z,6.61
2019-02-22T06:09:46.710Z,5.90
2019-02-22T06:12:19.349Z,5.45
2019-02-22T06:14:51.626Z,5.25
2019-02-22T06:17:23.568Z,5.08
2019-02-22T06:19:55.551Z,4.99
2019-02-22T06:22:29.934Z,5.01
2019-02-22T06:25:01.071Z,4.90
2019-02-22T06:27:33.056Z,4.83
2019-02-22T06:30:05.728Z,4.78
2019-02-22T06:32:37.882Z,4.78
2019-02-22T06:35:09.940Z,4.82
2019-02-22T06:37:41.922Z,4.55
2019-02-22T06:40:13.966Z,4.53
2019-02-22T06:42:46.360Z,4.51
2019-02-22T06:45:18.396Z,4.58
2019-02-22T06:47:50.383Z,4.44
2019-02-22T06:50:33.163Z,4.21
2019-02-22T06:52:56.050Z,4.15
2019-02-22T06:55:27.996Z,3.89
2019-02-22T06:58:00.094Z,3.86
2019-02-22T07:00:32.023Z,3.78
2019-02-22T07:03:04.008Z,3.66
2019-02-22T07:05:36.033Z,3.64
2019-02-22T07:08:08.003Z,3.58
2019-02-22T07:11:11.176Z,3.57
2019-02-22T07:13:43.268Z,3.68
2019-02-22T07:16:15.357Z,3.57
2019-02-22T07:18:49.879Z,3.49
2019-02-22T07:21:21.257Z,3.40
2019-02-22T07:23:53.290Z,3.43
2019-02-22T07:26:25.248Z,3.47
2019-02-22T07:28:57.305Z,3.58
2019-02-22T07:31:29.355Z,3.60
2019-02-22T07:34:01.315Z,3.59
2019-02-22T07:36:33.516Z,3.50
2019-02-22T07:39:06.830Z,3.50
2019-02-22T07:41:40.932Z,3.60
2019-02-22T07:44:12.706Z,3.39
2019-02-22T07:46:44.714Z,3.44
2019-02-22T07:49:25.217Z,3.44
2019-02-22T07:51:57.102Z,3.44
2019-02-22T07:54:29.141Z,3.40
2019-02-22T07:57:01.147Z,3.39
2019-02-22T07:59:33.208Z,3.57
2019-02-22T08:02:05.118Z,3.16
2019-02-22T08:04:37.148Z,2.96
2019-02-22T08:07:09.054Z,2.91
2019-02-22T08:09:41.023Z,2.73
2019-02-22T08:12:12.966Z,2.67
2019-02-22T08:14:44.965Z,2.57
2019-02-22T08:17:16.940Z,2.58
2019-02-22T08:19:49.009Z,2.64
2019-02-22T08:22:21.275Z,2.71
2019-02-22T08:24:53.256Z,2.71
2019-02-22T08:27:25.226Z,2.55
2019-02-22T08:29:57.314Z,2.62
2019-02-22T08:32:29.321Z,2.72
2019-02-22T08:35:01.356Z,2.62
2019-02-22T08:37:33.315Z,2.58
2019-02-22T08:40:05.733Z,2.79
2019-02-22T08:42:37.788Z,2.80
2019-02-22T08:45:10.182Z,2.83
2019-02-22T08:47:42.347Z,2.61
2019-02-22T08:50:14.573Z,2.74
2019-02-22T08:52:47.065Z,2.59
2019-02-22T08:55:19.081Z,2.48
2019-02-22T08:57:51.172Z,2.42
2019-02-22T09:00:23.255Z,2.37
2019-02-22T09:02:55.251Z,2.48
2019-02-22T09:05:27.216Z,2.56
2019-02-22T09:07:59.271Z,2.48
2019-02-22T09:10:31.383Z,2.58
2019-02-22T09:13:03.447Z,2.63
2019-02-22T09:15:35.419Z,2.41
2019-02-22T09:18:07.411Z,2.33
2019-02-22T09:20:39.374Z,2.49
2019-02-22T09:23:11.454Z,2.51
2019-02-22T09:25:43.559Z,2.61
2019-02-22T09:28:15.636Z,2.49
2019-02-22T09:30:48.676Z,2.48
2019-02-22T09:33:20.747Z,2.42
2019-02-22T09:35:53.009Z,2.71
2019-02-22T09:38:25.124Z,2.37
2019-02-22T09:40:57.740Z,2.73
2019-02-22T09:43:29.820Z,2.59
2019-02-22T09:46:05.290Z,2.25
2019-02-22T09:48:37.208Z,2.28
2019-02-22T09:51:09.303Z,2.31
2019-02-22T09:53:41.219Z,2.42
2019-02-22T09:56:13.450Z,2.29
2019-02-22T09:58:45.554Z,2.19
2019-02-22T10:01:22.783Z,2.10
2019-02-22T10:03:57.629Z,2.12
2019-02-22T10:07:05.856Z,2.22
2019-02-22T10:09:37.768Z,2.13
2019-02-22T10:12:09.640Z,2.15
2019-02-22T10:14:41.570Z,2.09
2019-02-22T10:17:13.499Z,2.28
2019-02-22T10:19:45.534Z,2.51
2019-02-22T10:22:17.495Z,2.47
2019-02-22T10:24:49.538Z,2.85
2019-02-22T10:27:21.446Z,2.76
2019-02-22T10:30:03.013Z,2.90
2019-02-22T10:32:36.453Z,2.89
2019-02-22T10:35:08.902Z,2.62
2019-02-22T10:37:40.902Z,2.43
2019-02-22T10:40:14.064Z,2.39
2019-02-22T10:42:46.034Z,2.30
2019-02-22T10:45:18.079Z,2.08
2019-02-22T10:47:49.945Z,2.12
2019-02-22T10:50:21.848Z,2.09
2019-02-22T10:53:01.703Z,1.99
2019-02-22T10:55:27.412Z,2.15
2019-02-22T10:58:04.411Z,2.31
2019-02-22T11:00:37.963Z,2.74
2019-02-22T11:03:09.799Z,3.75
2019-02-22T11:05:41.672Z,3.30
2019-02-22T11:08:13.570Z,3.51
2019-02-22T11:10:45.386Z,4.03
2019-02-22T11:13:17.255Z,5.28
2019-02-22T11:15:49.102Z,4.33
2019-02-22T11:18:21.080Z,4.03
2019-02-22T11:20:52.912Z,3.50
2019-02-22T11:23:24.785Z,3.00
2019-02-22T11:25:56.724Z,2.99
2019-02-22T11:28:28.600Z,3.18
2019-02-22T11:31:00.560Z,3.01
2019-02-22T11:33:32.542Z,3.17
2019-02-22T11:36:04.426Z,3.04
2019-02-22T11:38:36.411Z,2.70
2019-02-22T11:41:08.340Z,2.65
2019-02-22T11:43:40.238Z,2.66
2019-02-22T11:46:12.102Z,2.76
2019-02-22T11:48:43.920Z,2.65
2019-02-22T11:51:15.796Z,2.61
2019-02-22T11:53:47.701Z,2.66
2019-02-22T11:56:19.565Z,2.84
2019-02-22T11:58:51.520Z,3.01
2019-02-22T12:01:23.447Z,2.85
2019-02-22T12:03:55.439Z,2.95
2019-02-22T12:06:27.414Z,3.11
2019-02-22T12:08:59.333Z,3.16
2019-02-22T12:11:31.193Z,3.03
2019-02-22T12:14:03.158Z,3.14
2019-02-22T12:16:35.078Z,3.13
2019-02-22T12:19:06.934Z,3.07
2019-02-22T12:21:38.773Z,3.04
2019-02-22T12:24:10.749Z,3.20
2019-02-22T12:26:42.594Z,3.44
2019-02-22T12:29:14.481Z,3.54
2019-02-22T12:31:46.358Z,3.53
2019-02-22T12:34:18.264Z,3.46
2019-02-22T12:36:50.191Z,3.49
2019-02-22T12:39:22.181Z,3.46
2019-02-22T12:41:54.068Z,3.42
2019-02-22T12:44:26.102Z,3.50
2019-02-22T12:46:59.189Z,3.55
2019-02-22T12:49:31.062Z,3.49
2019-02-22T12:52:02.995Z,3.47
2019-02-22T12:54:34.905Z,3.43
2019-02-22T12:57:06.727Z,3.49
2019-02-22T12:59:38.681Z,3.46
2019-02-22T13:02:10.525Z,3.44
2019-02-22T13:04:47.221Z,3.39
2019-02-22T13:07:21.644Z,3.47
2019-02-22T13:09:53.625Z,3.55
2019-02-22T13:12:26.835Z,3.53
2019-02-22T13:15:13.638Z,3.56
2019-02-22T13:17:33.802Z,3.44
2019-02-22T13:20:05.989Z,3.51
2019-02-22T13:22:41.833Z,3.50
2019-02-22T13:25:16.714Z,3.57
2019-02-22T13:27:48.659Z,3.59
2019-02-22T13:30:20.544Z,3.58
2019-02-22T13:32:52.473Z,3.50
2019-02-22T13:35:27.166Z,3.66
2019-02-22T13:37:59.112Z,3.64
2019-02-22T13:40:31.738Z,3.64
2019-02-22T13:43:05.365Z,3.57
2019-02-22T13:45:37.415Z,3.57
2019-02-22T13:48:09.347Z,3.52
2019-02-22T13:50:42.993Z,3.61
2019-02-22T13:53:15.985Z,3.51
2019-02-22T13:55:49.994Z,3.42
2019-02-22T13:58:47.073Z,3.39
2019-02-22T14:01:19.373Z,3.49
2019-02-22T14:03:52.577Z,3.46
2019-02-22T14:06:24.606Z,3.48
2019-02-22T14:08:56.471Z,3.55
2019-02-22T14:11:30.406Z,3.46
2019-02-22T14:14:02.282Z,3.55
2019-02-22T14:16:35.196Z,3.45
2019-02-22T14:19:07.030Z,3.39
2019-02-22T14:21:39.026Z,3.45
2019-02-22T14:24:10.941Z,3.46
2019-02-22T14:26:42.891Z,3.47
2019-02-22T14:29:14.849Z,3.44
2019-02-22T14:31:47.035Z,3.44
2019-02-22T14:34:19.046Z,3.39
2019-02-22T14:36:50.904Z,3.47
2019-02-22T14:39:22.814Z,3.45
2019-02-22T14:41:54.739Z,3.41
2019-02-22T14:44:26.628Z,3.43
2019-02-22T14:46:58.469Z,3.39
2019-02-22T14:49:30.339Z,3.38
2019-02-22T14:52:02.267Z,3.35
2019-02-22T14:54:34.127Z,3.28
2019-02-22T14:57:06.106Z,3.31
2019-02-22T14:59:37.983Z,3.26
2019-02-22T15:02:12.876Z,3.15
2019-02-22T15:04:44.936Z,3.16
2019-02-22T15:07:16.914Z,3.17
2019-02-22T15:09:49.084Z,3.14
2019-02-22T15:12:21.051Z,3.13
2019-02-22T15:14:52.996Z,3.11
2019-02-22T15:17:42.348Z,3.12
2019-02-22T15:20:14.413Z,3.08
2019-02-22T15:22:46.304Z,3.07
2019-02-22T15:25:18.458Z,2.96
2019-02-22T15:27:50.316Z,2.92
2019-02-22T15:30:23.434Z,2.87
2019-02-22T15:32:55.401Z,2.92
2019-02-22T15:35:27.385Z,2.80
2019-02-22T15:37:59.390Z,2.85
2019-02-22T15:40:31.232Z,2.83
2019-02-22T15:43:03.227Z,2.76
2019-02-22T15:45:35.162Z,2.59
2019-02-22T15:48:07.288Z,2.57
2019-02-22T15:50:39.160Z,2.56
2019-02-22T15:53:11.166Z,2.59
2019-02-22T15:55:43.112Z,2.50
2019-02-22T15:58:15.128Z,2.44
2019-02-22T16:00:46.945Z,2.32
2019-02-22T16:03:18.896Z,2.19
2019-02-22T16:05:50.824Z,2.28
2019-02-22T16:08:22.698Z,2.35
2019-02-22T16:10:54.675Z,2.39
2019-02-22T16:13:26.700Z,2.25
2019-02-22T16:15:58.566Z,2.04
2019-02-22T16:18:30.432Z,1.86
2019-02-22T16:21:02.314Z,1.88
2019-02-22T16:23:34.166Z,1.90
2019-02-22T16:26:06.032Z,1.73
2019-02-22T16:28:37.870Z,1.71
2019-02-22T16:31:10.137Z,1.67
2019-02-22T16:33:42.048Z,1.54
2019-02-22T16:36:13.867Z,1.57
2019-02-22T16:38:45.836Z,1.48
2019-02-22T16:41:17.766Z,1.42
2019-02-22T16:43:49.610Z,1.47
2019-02-22T16:46:21.542Z,1.43
2019-02-22T16:48:53.349Z,1.46
2019-02-22T16:51:25.373Z,1.35
2019-02-22T16:53:57.263Z,1.33
2019-02-22T16:56:29.435Z,1.23
2019-02-22T16:59:01.293Z,1.28
2019-02-22T17:01:33.157Z,1.10
2019-02-22T17:04:09.526Z,1.06
2019-02-22T17:06:41.395Z,1.10
2019-02-22T17:09:13.449Z,1.08
2019-02-22T17:11:45.231Z,0.92
2019-02-22T17:14:17.175Z,0.86
2019-02-22T17:16:49.191Z,0.83
2019-02-22T17:19:24.245Z,0.70
2019-02-22T17:21:56.509Z,0.54
2019-02-22T17:24:30.723Z,0.56
2019-02-22T17:27:02.772Z,0.49
2019-02-22T17:29:35.803Z,0.45
2019-02-22T17:32:07.896Z,0.65
2019-02-22T17:34:39.893Z,0.53
2019-02-22T17:37:11.922Z,0.32
2019-02-22T17:39:46.687Z,0.35
2019-02-22T17:42:22.073Z,0.47
2019-02-22T17:44:56.731Z,0.36
2019-02-22T17:47:56.498Z,0.38
2019-02-22T17:51:08.859Z,0.39
2019-02-22T17:54:24.635Z,0.34
2019-02-22T17:56:56.947Z,0.13
2019-02-22T17:59:31.122Z,0.16
2019-02-22T18:02:03.439Z,0.12
2019-02-22T18:04:35.376Z,0.06
2019-02-22T18:07:07.231Z,0.07
2019-02-22T18:09:39.267Z,0.00
2019-02-22T18:12:11.320Z,0.06
2019-02-22T18:14:48.483Z,-0.04
2019-02-22T18:17:50.714Z,-0.05
2019-02-22T18:20:37.586Z,-0.10
2019-02-22T18:23:13.739Z,-0.04
2019-02-22T18:25:46.141Z,-0.17
2019-02-22T18:28:21.481Z,-0.42
2019-02-22T18:30:57.040Z,-0.24
2019-02-22T18:33:30.569Z,-0.48
2019-02-22T18:36:02.875Z,-0.56
2019-02-22T18:38:34.884Z,-0.45
2019-02-22T18:41:07.123Z,-0.44
2019-02-22T18:43:39.168Z,-0.63
2019-02-22T18:46:11.255Z,-0.69
2019-02-22T18:48:43.564Z,-0.40
2019-02-22T18:51:42.049Z,-0.48
2019-02-22T18:53:55.656Z,-0.54
2019-02-22T18:56:27.891Z,-0.62
2019-02-22T18:58:59.966Z,-0.57
2019-02-22T19:01:32.028Z,-0.50
2019-02-22T19:04:04.176Z,-0.63
2019-02-22T19:06:36.164Z,-0.50
2019-02-22T19:09:08.454Z,-0.56
2019-02-22T19:11:41.074Z,-0.79
2019-02-22T19:14:13.370Z,-0.82
2019-02-22T19:16:59.904Z,-0.56
2019-02-22T19:19:55.516Z,-0.72
2019-02-22T19:22:18.918Z,-0.88
2019-02-22T19:24:55.334Z,-0.92
2019-02-22T19:27:29.924Z,-0.73
2019-02-22T19:30:03.360Z,-0.90
2019-02-22T19:33:29.712Z,-1.00
2019-02-22T19:36:01.800Z,-0.92
2019-02-22T19:38:38.158Z,-1.01
2019-02-22T19:41:12.175Z,-0.65
2019-02-22T19:43:44.922Z,-0.82
2019-02-22T19:46:19.728Z,-1.02
2019-02-22T19:48:51.800Z,-1.06
2019-02-22T19:51:29.571Z,-0.86
2019-02-22T19:54:02.686Z,-0.92
2019-02-22T19:56:43.827Z,-1.06
2019-02-22T19:59:16.151Z,-1.00
2019-02-22T20:02:02.598Z,-1.18
2019-02-22T20:04:40.875Z,-1.24
2019-02-22T20:07:14.870Z,-1.10
2019-02-22T20:09:49.250Z,-1.14
2019-02-22T20:12:23.430Z,-1.28
2019-02-22T20:14:56.958Z,-1.25
2019-02-22T20:17:40.280Z,-1.26
2019-02-22T21:08:01.250Z,-1.76
2019-02-22T21:10:33.352Z,-1.95
2019-02-22T21:13:05.473Z,-1.96
2019-02-22T21:15:37.578Z,-1.94
2019-02-22T21:18:16.351Z,-1.95
2019-02-22T21:20:43.387Z,-1.84
2019-02-22T21:23:15.412Z,-1.84
2019-02-22T21:25:47.413Z,-1.99
2019-02-22T21:28:19.326Z,-1.99
2019-02-22T21:30:51.192Z,-1.83
2019-02-22T21:33:23.051Z,-1.87
2019-02-22T21:35:54.971Z,-1.76
2019-02-22T21:38:26.943Z,-1.77
2019-02-22T21:40:58.773Z,-1.91
2019-02-22T21:43:31.933Z,-2.08
2019-02-22T21:46:03.739Z,-2.14
2019-02-22T21:48:35.588Z,-2.11
2019-02-22T21:51:07.727Z,-2.08
2019-02-22T21:53:39.682Z,-2.20
2019-02-22T21:56:11.562Z,-2.29
2019-02-22T21:58:43.451Z,-2.14
2019-02-22T22:01:15.304Z,-2.13
2019-02-22T22:03:47.307Z,-2.19
2019-02-22T22:06:19.253Z,-2.16
2019-02-22T22:08:51.282Z,-2.11
2019-02-22T22:11:23.214Z,-2.17
2019-02-22T22:13:55.113Z,-2.17
2019-02-22T22:16:26.961Z,-2.24
2019-02-22T22:18:58.903Z,-2.34
2019-02-22T22:21:30.735Z,-2.32
2019-02-22T22:24:02.666Z,-2.44
2019-02-22T22:26:34.540Z,-2.42
2019-02-22T22:29:06.515Z,-2.55
2019-02-22T22:31:38.362Z,-2.49
2019-02-22T22:34:10.273Z,-2.54
2019-02-22T22:36:42.173Z,-2.57
2019-02-22T22:39:14.235Z,-2.69
2019-02-22T22:41:46.113Z,-2.59
2019-02-22T22:44:17.981Z,-2.61
2019-02-22T22:46:50.040Z,-2.62
2019-02-22T22:49:22.058Z,-2.59
2019-02-22T22:51:53.947Z,-2.71
2019-02-22T22:54:25.823Z,-2.75
2019-02-22T22:56:58.722Z,-2.77
2019-02-22T22:59:30.664Z,-2.64
2019-02-22T23:02:02.831Z,-2.55
2019-02-22T23:04:34.895Z,-2.68
2019-02-22T23:07:06.828Z,-2.60
2019-02-22T23:09:38.774Z,-2.57
2019-02-22T23:12:10.693Z,-2.80
2019-02-22T23:14:42.561Z,-2.76
2019-02-22T23:17:14.477Z,-2.70
2019-02-22T23:19:46.356Z,-2.64
2019-02-22T23:22:18.198Z,-2.69
2019-02-22T23:24:50.067Z,-2.97
2019-02-22T23:27:22.032Z,-2.91
2019-02-22T23:29:53.976Z,-2.81
2019-02-22T23:32:25.778Z,-2.92
2019-02-22T23:34:57.748Z,-3.16
2019-02-22T23:37:29.649Z,-3.17
2019-02-22T23:40:01.493Z,-3.12
2019-02-22T23:42:33.428Z,-3.24
2019-02-22T23:45:05.528Z,-3.34
2019-02-22T23:47:37.458Z,-3.17
2019-02-22T23:50:09.379Z,-3.21
2019-02-22T23:52:41.301Z,-3.31
2019-02-22T23:55:13.164Z,-3.37
2019-02-22T23:57:44.995Z,-3.40
